sensor_id;sensor_type;location;lat;lon;timestamp;P1;durP1;ratioP1;P2;durP2;ratioP2
42988;SDS011;28622;43.716;20.668;2023-03-31T00:01:33;12.07;;;6.97;;
42988;SDS011;28622;43.716;20.668;2023-03-31T00:03:59;16.08;;;7.85;;
42988;SDS011;28622;43.716;20.668;2023-03-31T00:06:32;16.75;;;6.90;;
42988;SDS011;28622;43.716;20.668;2023-03-31T00:09:06;15.77;;;7.32;;
42988;SDS011;28622;43.716;20.668;2023-03-31T00:11:34;18.85;;;7.80;;
42988;SDS011;28622;43.716;20.668;2023-03-31T00:14:00;15.00;;;7.90;;
42988;SDS011;28622;43.716;20.668;2023-03-31T00:16:26;14.50;;;7.40;;
42988;SDS011;28622;43.716;20.668;2023-03-31T00:18:52;15.38;;;7.15;;
42988;SDS011;28622;43.716;20.668;2023-03-31T00:21:19;17.80;;;7.32;;
42988;SDS011;28622;43.716;20.668;2023-03-31T00:23:54;14.43;;;6.50;;
42988;SDS011;28622;43.716;20.668;2023-03-31T00:26:31;11.95;;;5.22;;
42988;SDS011;28622;43.716;20.668;2023-03-31T00:28:58;8.23;;;4.85;;
42988;SDS011;28622;43.716;20.668;2023-03-31T00:31:24;18.50;;;6.00;;
42988;SDS011;28622;43.716;20.668;2023-03-31T00:33:51;13.38;;;6.10;;
42988;SDS011;28622;43.716;20.668;2023-03-31T00:36:17;11.40;;;5.25;;
42988;SDS011;28622;43.716;20.668;2023-03-31T00:38:51;9.93;;;5.13;;
42988;SDS011;28622;43.716;20.668;2023-03-31T00:41:18;11.90;;;4.72;;
42988;SDS011;28622;43.716;20.668;2023-03-31T00:52:25;9.27;;;4.63;;
42988;SDS011;28622;43.716;20.668;2023-03-31T00:54:57;15.82;;;4.82;;
42988;SDS011;28622;43.716;20.668;2023-03-31T00:57:31;10.32;;;5.00;;
42988;SDS011;28622;43.716;20.668;2023-03-31T01:00:03;11.48;;;4.60;;
42988;SDS011;28622;43.716;20.668;2023-03-31T01:02:42;12.65;;;5.72;;
42988;SDS011;28622;43.716;20.668;2023-03-31T01:05:24;12.98;;;6.25;;
42988;SDS011;28622;43.716;20.668;2023-03-31T01:07:54;9.10;;;3.97;;
42988;SDS011;28622;43.716;20.668;2023-03-31T01:10:22;13.45;;;5.25;;
42988;SDS011;28622;43.716;20.668;2023-03-31T01:12:49;11.20;;;5.78;;
42988;SDS011;28622;43.716;20.668;2023-03-31T01:15:18;15.27;;;6.70;;
42988;SDS011;28622;43.716;20.668;2023-03-31T01:17:43;14.73;;;6.90;;
42988;SDS011;28622;43.716;20.668;2023-03-31T01:31:59;11.63;;;6.22;;
42988;SDS011;28622;43.716;20.668;2023-03-31T01:42:51;8.93;;;5.70;;
42988;SDS011;28622;43.716;20.668;2023-03-31T01:48:18;8.48;;;5.32;;
42988;SDS011;28622;43.716;20.668;2023-03-31T01:51:00;13.85;;;6.10;;
42988;SDS011;28622;43.716;20.668;2023-03-31T01:53:50;15.13;;;6.38;;
42988;SDS011;28622;43.716;20.668;2023-03-31T01:56:39;13.65;;;6.30;;
42988;SDS011;28622;43.716;20.668;2023-03-31T01:59:11;16.77;;;6.25;;
42988;SDS011;28622;43.716;20.668;2023-03-31T02:01:43;12.63;;;6.78;;
42988;SDS011;28622;43.716;20.668;2023-03-31T02:04:18;13.05;;;6.57;;
42988;SDS011;28622;43.716;20.668;2023-03-31T02:06:52;11.27;;;6.47;;
42988;SDS011;28622;43.716;20.668;2023-03-31T02:09:22;12.43;;;7.05;;
42988;SDS011;28622;43.716;20.668;2023-03-31T02:11:52;13.15;;;6.13;;
42988;SDS011;28622;43.716;20.668;2023-03-31T02:14:21;11.40;;;6.00;;
42988;SDS011;28622;43.716;20.668;2023-03-31T02:16:52;12.32;;;5.50;;
42988;SDS011;28622;43.716;20.668;2023-03-31T02:19:22;14.88;;;6.18;;
42988;SDS011;28622;43.716;20.668;2023-03-31T02:21:55;14.52;;;6.47;;
42988;SDS011;28622;43.716;20.668;2023-03-31T02:24:24;13.95;;;7.05;;
42988;SDS011;28622;43.716;20.668;2023-03-31T02:26:53;13.68;;;6.47;;
42988;SDS011;28622;43.716;20.668;2023-03-31T02:29:27;15.80;;;7.80;;
42988;SDS011;28622;43.716;20.668;2023-03-31T02:31:56;19.95;;;7.82;;
42988;SDS011;28622;43.716;20.668;2023-03-31T02:34:24;31.65;;;11.90;;
42988;SDS011;28622;43.716;20.668;2023-03-31T02:36:49;48.95;;;15.23;;
42988;SDS011;28622;43.716;20.668;2023-03-31T02:39:20;30.02;;;12.60;;
42988;SDS011;28622;43.716;20.668;2023-03-31T02:41:51;36.05;;;13.50;;
42988;SDS011;28622;43.716;20.668;2023-03-31T02:44:17;35.22;;;13.60;;
42988;SDS011;28622;43.716;20.668;2023-03-31T02:46:43;31.45;;;12.13;;
42988;SDS011;28622;43.716;20.668;2023-03-31T02:49:09;27.55;;;11.27;;
42988;SDS011;28622;43.716;20.668;2023-03-31T02:54:58;23.55;;;9.20;;
42988;SDS011;28622;43.716;20.668;2023-03-31T03:13:22;16.00;;;7.40;;
42988;SDS011;28622;43.716;20.668;2023-03-31T03:15:59;19.00;;;8.57;;
42988;SDS011;28622;43.716;20.668;2023-03-31T03:18:30;21.00;;;8.57;;
42988;SDS011;28622;43.716;20.668;2023-03-31T03:20:56;17.83;;;8.52;;
42988;SDS011;28622;43.716;20.668;2023-03-31T03:23:21;22.42;;;9.20;;
42988;SDS011;28622;43.716;20.668;2023-03-31T03:25:47;20.27;;;9.23;;
42988;SDS011;28622;43.716;20.668;2023-03-31T03:28:13;23.65;;;8.63;;
42988;SDS011;28622;43.716;20.668;2023-03-31T03:30:39;20.40;;;9.57;;
42988;SDS011;28622;43.716;20.668;2023-03-31T03:33:05;17.55;;;8.07;;
42988;SDS011;28622;43.716;20.668;2023-03-31T03:35:31;18.48;;;8.50;;
42988;SDS011;28622;43.716;20.668;2023-03-31T03:37:58;19.20;;;7.60;;
42988;SDS011;28622;43.716;20.668;2023-03-31T03:40:24;18.27;;;8.10;;
42988;SDS011;28622;43.716;20.668;2023-03-31T03:42:50;14.52;;;7.32;;
42988;SDS011;28622;43.716;20.668;2023-03-31T03:45:15;16.67;;;7.68;;
42988;SDS011;28622;43.716;20.668;2023-03-31T03:47:41;17.52;;;8.43;;
42988;SDS011;28622;43.716;20.668;2023-03-31T03:50:07;13.30;;;7.70;;
42988;SDS011;28622;43.716;20.668;2023-03-31T03:52:34;16.58;;;7.18;;
42988;SDS011;28622;43.716;20.668;2023-03-31T03:54:59;16.42;;;7.60;;
42988;SDS011;28622;43.716;20.668;2023-03-31T03:57:26;19.08;;;8.15;;
42988;SDS011;28622;43.716;20.668;2023-03-31T03:59:52;22.95;;;8.15;;
42988;SDS011;28622;43.716;20.668;2023-03-31T04:02:17;16.38;;;7.50;;
42988;SDS011;28622;43.716;20.668;2023-03-31T04:04:43;18.70;;;7.85;;
42988;SDS011;28622;43.716;20.668;2023-03-31T04:07:09;16.05;;;7.28;;
42988;SDS011;28622;43.716;20.668;2023-03-31T04:09:35;14.38;;;6.70;;
42988;SDS011;28622;43.716;20.668;2023-03-31T04:12:01;11.57;;;6.57;;
42988;SDS011;28622;43.716;20.668;2023-03-31T04:14:27;13.57;;;6.68;;
42988;SDS011;28622;43.716;20.668;2023-03-31T04:16:52;15.90;;;6.80;;
42988;SDS011;28622;43.716;20.668;2023-03-31T04:19:20;13.57;;;6.25;;
42988;SDS011;28622;43.716;20.668;2023-03-31T04:21:50;12.05;;;6.38;;
42988;SDS011;28622;43.716;20.668;2023-03-31T04:24:22;11.18;;;4.55;;
42988;SDS011;28622;43.716;20.668;2023-03-31T04:26:56;10.70;;;4.35;;
42988;SDS011;28622;43.716;20.668;2023-03-31T04:29:23;9.73;;;3.72;;
42988;SDS011;28622;43.716;20.668;2023-03-31T04:31:50;5.90;;;2.63;;
42988;SDS011;28622;43.716;20.668;2023-03-31T04:34:18;7.80;;;3.13;;
42988;SDS011;28622;43.716;20.668;2023-03-31T04:36:46;9.13;;;4.00;;
42988;SDS011;28622;43.716;20.668;2023-03-31T04:39:16;10.10;;;3.75;;
42988;SDS011;28622;43.716;20.668;2023-03-31T04:41:54;18.00;;;5.18;;
42988;SDS011;28622;43.716;20.668;2023-03-31T04:44:21;7.10;;;3.22;;
42988;SDS011;28622;43.716;20.668;2023-03-31T04:46:47;9.70;;;3.75;;
42988;SDS011;28622;43.716;20.668;2023-03-31T04:49:13;13.07;;;5.15;;
42988;SDS011;28622;43.716;20.668;2023-03-31T04:51:39;15.23;;;5.43;;
42988;SDS011;28622;43.716;20.668;2023-03-31T04:54:05;19.35;;;8.48;;
42988;SDS011;28622;43.716;20.668;2023-03-31T04:56:31;13.52;;;6.55;;
42988;SDS011;28622;43.716;20.668;2023-03-31T04:58:56;16.23;;;6.25;;
42988;SDS011;28622;43.716;20.668;2023-03-31T05:01:22;8.13;;;4.85;;
42988;SDS011;28622;43.716;20.668;2023-03-31T05:03:48;8.30;;;4.57;;
42988;SDS011;28622;43.716;20.668;2023-03-31T05:06:14;11.07;;;5.65;;
42988;SDS011;28622;43.716;20.668;2023-03-31T05:08:41;11.48;;;5.95;;
42988;SDS011;28622;43.716;20.668;2023-03-31T05:11:07;19.75;;;7.63;;
42988;SDS011;28622;43.716;20.668;2023-03-31T05:13:33;20.48;;;8.93;;
42988;SDS011;28622;43.716;20.668;2023-03-31T05:16:04;18.75;;;8.05;;
42988;SDS011;28622;43.716;20.668;2023-03-31T05:18:35;16.50;;;7.32;;
42988;SDS011;28622;43.716;20.668;2023-03-31T05:21:13;21.17;;;6.97;;
42988;SDS011;28622;43.716;20.668;2023-03-31T05:23:43;15.05;;;6.25;;
42988;SDS011;28622;43.716;20.668;2023-03-31T05:26:10;11.90;;;5.30;;
42988;SDS011;28622;43.716;20.668;2023-03-31T05:28:36;12.90;;;6.03;;
42988;SDS011;28622;43.716;20.668;2023-03-31T05:31:04;25.80;;;10.23;;
42988;SDS011;28622;43.716;20.668;2023-03-31T05:33:31;47.67;;;16.83;;
42988;SDS011;28622;43.716;20.668;2023-03-31T05:35:57;29.25;;;11.20;;
42988;SDS011;28622;43.716;20.668;2023-03-31T05:38:26;22.30;;;9.05;;
42988;SDS011;28622;43.716;20.668;2023-03-31T05:40:55;25.05;;;10.57;;
42988;SDS011;28622;43.716;20.668;2023-03-31T05:43:21;25.23;;;10.90;;
42988;SDS011;28622;43.716;20.668;2023-03-31T05:45:47;19.23;;;8.85;;
42988;SDS011;28622;43.716;20.668;2023-03-31T05:48:13;22.05;;;11.30;;
42988;SDS011;28622;43.716;20.668;2023-03-31T05:50:39;25.20;;;10.25;;
42988;SDS011;28622;43.716;20.668;2023-03-31T05:53:07;32.75;;;12.30;;
42988;SDS011;28622;43.716;20.668;2023-03-31T05:55:34;30.48;;;12.88;;
42988;SDS011;28622;43.716;20.668;2023-03-31T05:58:00;36.88;;;14.35;;
42988;SDS011;28622;43.716;20.668;2023-03-31T06:00:26;37.72;;;15.07;;
42988;SDS011;28622;43.716;20.668;2023-03-31T06:02:52;31.88;;;12.95;;
42988;SDS011;28622;43.716;20.668;2023-03-31T06:05:18;32.65;;;13.25;;
42988;SDS011;28622;43.716;20.668;2023-03-31T06:07:44;28.30;;;10.80;;
42988;SDS011;28622;43.716;20.668;2023-03-31T06:10:09;16.50;;;6.45;;
42988;SDS011;28622;43.716;20.668;2023-03-31T06:12:35;8.10;;;4.43;;
42988;SDS011;28622;43.716;20.668;2023-03-31T06:15:01;6.63;;;3.80;;
42988;SDS011;28622;43.716;20.668;2023-03-31T06:17:27;9.55;;;3.35;;
42988;SDS011;28622;43.716;20.668;2023-03-31T06:19:53;6.38;;;3.65;;
42988;SDS011;28622;43.716;20.668;2023-03-31T06:22:19;6.25;;;3.13;;
42988;SDS011;28622;43.716;20.668;2023-03-31T06:24:45;7.18;;;3.38;;
42988;SDS011;28622;43.716;20.668;2023-03-31T06:27:11;6.60;;;3.67;;
42988;SDS011;28622;43.716;20.668;2023-03-31T06:29:37;10.35;;;6.55;;
42988;SDS011;28622;43.716;20.668;2023-03-31T06:32:02;13.93;;;7.20;;
42988;SDS011;28622;43.716;20.668;2023-03-31T06:34:29;19.77;;;7.25;;
42988;SDS011;28622;43.716;20.668;2023-03-31T06:36:54;15.57;;;8.63;;
42988;SDS011;28622;43.716;20.668;2023-03-31T06:39:20;12.73;;;5.43;;
42988;SDS011;28622;43.716;20.668;2023-03-31T06:41:46;7.32;;;3.47;;
42988;SDS011;28622;43.716;20.668;2023-03-31T06:44:12;9.45;;;3.05;;
42988;SDS011;28622;43.716;20.668;2023-03-31T06:46:40;8.63;;;2.53;;
42988;SDS011;28622;43.716;20.668;2023-03-31T06:49:07;7.93;;;2.10;;
42988;SDS011;28622;43.716;20.668;2023-03-31T06:51:32;3.33;;;1.67;;
42988;SDS011;28622;43.716;20.668;2023-03-31T06:53:58;5.20;;;1.40;;
42988;SDS011;28622;43.716;20.668;2023-03-31T06:56:24;2.20;;;1.23;;
42988;SDS011;28622;43.716;20.668;2023-03-31T06:58:51;1.88;;;1.08;;
42988;SDS011;28622;43.716;20.668;2023-03-31T07:01:17;2.45;;;1.73;;
42988;SDS011;28622;43.716;20.668;2023-03-31T07:03:42;2.95;;;1.27;;
42988;SDS011;28622;43.716;20.668;2023-03-31T07:06:08;4.63;;;1.45;;
42988;SDS011;28622;43.716;20.668;2023-03-31T07:08:34;8.68;;;2.10;;
42988;SDS011;28622;43.716;20.668;2023-03-31T07:11:00;4.13;;;1.65;;
42988;SDS011;28622;43.716;20.668;2023-03-31T07:13:26;8.20;;;2.58;;
42988;SDS011;28622;43.716;20.668;2023-03-31T07:15:53;4.40;;;2.20;;
42988;SDS011;28622;43.716;20.668;2023-03-31T07:18:19;4.35;;;2.10;;
42988;SDS011;28622;43.716;20.668;2023-03-31T07:20:48;7.35;;;2.45;;
42988;SDS011;28622;43.716;20.668;2023-03-31T07:23:14;7.53;;;2.05;;
42988;SDS011;28622;43.716;20.668;2023-03-31T07:25:41;2.92;;;1.55;;
42988;SDS011;28622;43.716;20.668;2023-03-31T07:28:06;3.13;;;1.15;;
42988;SDS011;28622;43.716;20.668;2023-03-31T07:30:32;7.38;;;1.75;;
42988;SDS011;28622;43.716;20.668;2023-03-31T07:32:58;4.20;;;1.27;;
42988;SDS011;28622;43.716;20.668;2023-03-31T07:35:26;2.78;;;1.52;;
42988;SDS011;28622;43.716;20.668;2023-03-31T07:37:51;3.05;;;1.38;;
42988;SDS011;28622;43.716;20.668;2023-03-31T07:40:22;3.15;;;1.45;;
42988;SDS011;28622;43.716;20.668;2023-03-31T07:42:49;4.68;;;2.15;;
42988;SDS011;28622;43.716;20.668;2023-03-31T07:45:16;8.10;;;2.67;;
42988;SDS011;28622;43.716;20.668;2023-03-31T07:47:43;3.25;;;1.80;;
42988;SDS011;28622;43.716;20.668;2023-03-31T07:50:10;9.10;;;2.70;;
42988;SDS011;28622;43.716;20.668;2023-03-31T07:52:37;6.15;;;2.50;;
42988;SDS011;28622;43.716;20.668;2023-03-31T07:55:04;4.13;;;2.33;;
42988;SDS011;28622;43.716;20.668;2023-03-31T07:57:30;10.85;;;5.50;;
42988;SDS011;28622;43.716;20.668;2023-03-31T07:59:56;8.50;;;3.63;;
42988;SDS011;28622;43.716;20.668;2023-03-31T08:02:21;7.00;;;2.28;;
42988;SDS011;28622;43.716;20.668;2023-03-31T08:04:47;3.15;;;1.13;;
42988;SDS011;28622;43.716;20.668;2023-03-31T08:07:13;4.05;;;0.77;;
42988;SDS011;28622;43.716;20.668;2023-03-31T08:09:41;2.70;;;1.05;;
42988;SDS011;28622;43.716;20.668;2023-03-31T08:12:09;1.65;;;0.77;;
42988;SDS011;28622;43.716;20.668;2023-03-31T08:14:35;2.38;;;0.88;;
42988;SDS011;28622;43.716;20.668;2023-03-31T08:17:00;2.22;;;1.10;;
42988;SDS011;28622;43.716;20.668;2023-03-31T08:19:27;3.88;;;1.38;;
42988;SDS011;28622;43.716;20.668;2023-03-31T08:21:53;2.45;;;1.10;;
42988;SDS011;28622;43.716;20.668;2023-03-31T08:24:19;4.10;;;1.55;;
42988;SDS011;28622;43.716;20.668;2023-03-31T08:26:45;2.08;;;0.90;;
42988;SDS011;28622;43.716;20.668;2023-03-31T08:29:11;3.22;;;1.17;;
42988;SDS011;28622;43.716;20.668;2023-03-31T08:31:36;2.40;;;1.08;;
42988;SDS011;28622;43.716;20.668;2023-03-31T08:34:03;2.75;;;0.88;;
42988;SDS011;28622;43.716;20.668;2023-03-31T08:36:29;1.75;;;0.80;;
42988;SDS011;28622;43.716;20.668;2023-03-31T08:38:55;2.15;;;0.75;;
42988;SDS011;28622;43.716;20.668;2023-03-31T08:41:40;1.50;;;0.70;;
42988;SDS011;28622;43.716;20.668;2023-03-31T08:44:12;0.95;;;0.50;;
42988;SDS011;28622;43.716;20.668;2023-03-31T08:46:46;2.80;;;0.80;;
42988;SDS011;28622;43.716;20.668;2023-03-31T08:49:16;2.45;;;0.63;;
42988;SDS011;28622;43.716;20.668;2023-03-31T08:51:48;2.30;;;0.60;;
42988;SDS011;28622;43.716;20.668;2023-03-31T08:54:30;1.50;;;0.80;;
42988;SDS011;28622;43.716;20.668;2023-03-31T08:57:21;2.22;;;1.00;;
42988;SDS011;28622;43.716;20.668;2023-03-31T08:59:49;1.27;;;0.68;;
42988;SDS011;28622;43.716;20.668;2023-03-31T09:02:31;0.82;;;0.57;;
42988;SDS011;28622;43.716;20.668;2023-03-31T09:10:47;3.72;;;0.80;;
42988;SDS011;28622;43.716;20.668;2023-03-31T09:16:12;7.85;;;1.10;;
42988;SDS011;28622;43.716;20.668;2023-03-31T09:18:39;2.20;;;1.08;;
42988;SDS011;28622;43.716;20.668;2023-03-31T09:23:47;4.57;;;1.10;;
42988;SDS011;28622;43.716;20.668;2023-03-31T09:26:46;1.27;;;0.80;;
42988;SDS011;28622;43.716;20.668;2023-03-31T09:29:21;8.15;;;0.85;;
42988;SDS011;28622;43.716;20.668;2023-03-31T09:31:53;2.00;;;0.88;;
42988;SDS011;28622;43.716;20.668;2023-03-31T09:34:24;1.80;;;0.85;;
42988;SDS011;28622;43.716;20.668;2023-03-31T09:36:53;2.97;;;0.75;;
42988;SDS011;28622;43.716;20.668;2023-03-31T09:39:19;1.05;;;0.70;;
42988;SDS011;28622;43.716;20.668;2023-03-31T09:41:46;2.80;;;0.70;;
42988;SDS011;28622;43.716;20.668;2023-03-31T09:44:22;1.52;;;0.82;;
42988;SDS011;28622;43.716;20.668;2023-03-31T09:46:54;0.68;;;0.47;;
42988;SDS011;28622;43.716;20.668;2023-03-31T09:49:26;2.25;;;0.90;;
42988;SDS011;28622;43.716;20.668;2023-03-31T09:52:01;0.63;;;0.50;;
42988;SDS011;28622;43.716;20.668;2023-03-31T09:54:40;2.58;;;0.60;;
42988;SDS011;28622;43.716;20.668;2023-03-31T09:57:22;0.90;;;0.50;;
42988;SDS011;28622;43.716;20.668;2023-03-31T09:59:50;1.08;;;0.60;;
42988;SDS011;28622;43.716;20.668;2023-03-31T10:02:22;1.15;;;0.70;;
42988;SDS011;28622;43.716;20.668;2023-03-31T10:05:00;1.40;;;0.68;;
42988;SDS011;28622;43.716;20.668;2023-03-31T10:07:29;3.83;;;0.70;;
42988;SDS011;28622;43.716;20.668;2023-03-31T10:09:55;1.33;;;0.60;;
42988;SDS011;28622;43.716;20.668;2023-03-31T10:12:22;1.55;;;0.75;;
42988;SDS011;28622;43.716;20.668;2023-03-31T10:14:52;4.03;;;0.80;;
42988;SDS011;28622;43.716;20.668;2023-03-31T10:17:26;4.15;;;1.15;;
42988;SDS011;28622;43.716;20.668;2023-03-31T10:19:53;0.95;;;0.47;;
42988;SDS011;28622;43.716;20.668;2023-03-31T10:24:51;3.17;;;0.75;;
42988;SDS011;28622;43.716;20.668;2023-03-31T10:27:27;0.63;;;0.40;;
42988;SDS011;28622;43.716;20.668;2023-03-31T10:29:56;2.45;;;0.77;;
42988;SDS011;28622;43.716;20.668;2023-03-31T10:32:33;0.45;;;0.40;;
42988;SDS011;28622;43.716;20.668;2023-03-31T10:35:11;1.30;;;0.52;;
42988;SDS011;28622;43.716;20.668;2023-03-31T10:37:57;0.95;;;0.55;;
42988;SDS011;28622;43.716;20.668;2023-03-31T10:40:27;3.13;;;0.70;;
42988;SDS011;28622;43.716;20.668;2023-03-31T10:43:03;1.48;;;0.45;;
42988;SDS011;28622;43.716;20.668;2023-03-31T10:45:42;1.73;;;0.60;;
42988;SDS011;28622;43.716;20.668;2023-03-31T10:48:17;1.98;;;0.60;;
42988;SDS011;28622;43.716;20.668;2023-03-31T10:50:54;5.40;;;0.70;;
42988;SDS011;28622;43.716;20.668;2023-03-31T10:53:24;1.45;;;0.50;;
42988;SDS011;28622;43.716;20.668;2023-03-31T10:55:57;1.60;;;0.73;;
42988;SDS011;28622;43.716;20.668;2023-03-31T11:01:58;1.67;;;0.60;;
42988;SDS011;28622;43.716;20.668;2023-03-31T11:12:59;1.58;;;0.60;;
42988;SDS011;28622;43.716;20.668;2023-03-31T11:15:53;1.25;;;0.70;;
42988;SDS011;28622;43.716;20.668;2023-03-31T11:24:37;1.35;;;0.73;;
42988;SDS011;28622;43.716;20.668;2023-03-31T11:27:33;1.13;;;0.63;;
42988;SDS011;28622;43.716;20.668;2023-03-31T11:30:19;2.00;;;0.88;;
42988;SDS011;28622;43.716;20.668;2023-03-31T11:33:04;2.33;;;0.98;;
42988;SDS011;28622;43.716;20.668;2023-03-31T11:48:52;6.22;;;0.80;;
42988;SDS011;28622;43.716;20.668;2023-03-31T11:51:24;2.90;;;0.68;;
42988;SDS011;28622;43.716;20.668;2023-03-31T11:54:12;2.20;;;0.68;;
42988;SDS011;28622;43.716;20.668;2023-03-31T11:56:44;3.38;;;0.90;;
42988;SDS011;28622;43.716;20.668;2023-03-31T11:59:10;4.32;;;0.70;;
42988;SDS011;28622;43.716;20.668;2023-03-31T12:01:58;0.50;;;0.38;;
42988;SDS011;28622;43.716;20.668;2023-03-31T12:04:42;0.57;;;0.38;;
42988;SDS011;28622;43.716;20.668;2023-03-31T12:12:17;0.40;;;0.40;;
42988;SDS011;28622;43.716;20.668;2023-03-31T12:14:52;1.45;;;0.77;;
42988;SDS011;28622;43.716;20.668;2023-03-31T12:17:31;4.68;;;0.75;;
42988;SDS011;28622;43.716;20.668;2023-03-31T12:20:01;1.00;;;0.47;;
42988;SDS011;28622;43.716;20.668;2023-03-31T12:22:43;2.72;;;1.00;;
42988;SDS011;28622;43.716;20.668;2023-03-31T12:25:15;1.15;;;0.50;;
42988;SDS011;28622;43.716;20.668;2023-03-31T12:27:50;1.63;;;0.60;;
42988;SDS011;28622;43.716;20.668;2023-03-31T12:30:31;2.33;;;0.63;;
42988;SDS011;28622;43.716;20.668;2023-03-31T12:33:19;1.27;;;0.60;;
42988;SDS011;28622;43.716;20.668;2023-03-31T12:55:49;3.65;;;0.90;;
42988;SDS011;28622;43.716;20.668;2023-03-31T13:01:02;2.60;;;0.65;;
42988;SDS011;28622;43.716;20.668;2023-03-31T13:16:27;1.70;;;0.93;;
42988;SDS011;28622;43.716;20.668;2023-03-31T13:18:55;3.90;;;0.80;;
42988;SDS011;28622;43.716;20.668;2023-03-31T13:21:21;1.08;;;0.50;;
42988;SDS011;28622;43.716;20.668;2023-03-31T13:23:48;1.23;;;0.55;;
42988;SDS011;28622;43.716;20.668;2023-03-31T13:34:27;1.23;;;0.70;;
42988;SDS011;28622;43.716;20.668;2023-03-31T13:39:53;2.83;;;0.80;;
42988;SDS011;28622;43.716;20.668;2023-03-31T13:48:13;1.88;;;0.52;;
42988;SDS011;28622;43.716;20.668;2023-03-31T13:58:52;4.88;;;1.20;;
42988;SDS011;28622;43.716;20.668;2023-03-31T14:07:37;3.50;;;0.57;;
42988;SDS011;28622;43.716;20.668;2023-03-31T14:15:31;0.82;;;0.38;;
42988;SDS011;28622;43.716;20.668;2023-03-31T14:17:57;1.55;;;0.82;;
42988;SDS011;28622;43.716;20.668;2023-03-31T14:25:34;1.40;;;0.90;;
42988;SDS011;28622;43.716;20.668;2023-03-31T14:39:21;1.30;;;0.50;;
42988;SDS011;28622;43.716;20.668;2023-03-31T14:41:52;1.38;;;0.57;;
42988;SDS011;28622;43.716;20.668;2023-03-31T14:44:19;2.30;;;0.70;;
42988;SDS011;28622;43.716;20.668;2023-03-31T14:46:46;0.68;;;0.43;;
42988;SDS011;28622;43.716;20.668;2023-03-31T14:49:19;1.25;;;0.57;;
42988;SDS011;28622;43.716;20.668;2023-03-31T14:51:50;1.63;;;0.70;;
42988;SDS011;28622;43.716;20.668;2023-03-31T14:54:18;1.20;;;0.47;;
42988;SDS011;28622;43.716;20.668;2023-03-31T14:56:49;7.32;;;1.52;;
42988;SDS011;28622;43.716;20.668;2023-03-31T14:59:23;3.08;;;1.20;;
42988;SDS011;28622;43.716;20.668;2023-03-31T15:01:52;3.15;;;0.68;;
42988;SDS011;28622;43.716;20.668;2023-03-31T15:04:22;0.85;;;0.60;;
42988;SDS011;28622;43.716;20.668;2023-03-31T15:06:50;1.55;;;0.80;;
42988;SDS011;28622;43.716;20.668;2023-03-31T15:09:21;2.05;;;1.00;;
42988;SDS011;28622;43.716;20.668;2023-03-31T15:11:55;1.60;;;0.98;;
42988;SDS011;28622;43.716;20.668;2023-03-31T15:14:30;2.15;;;0.93;;
42988;SDS011;28622;43.716;20.668;2023-03-31T15:16:59;1.33;;;0.85;;
42988;SDS011;28622;43.716;20.668;2023-03-31T15:19:29;2.10;;;0.88;;
42988;SDS011;28622;43.716;20.668;2023-03-31T15:22:00;1.70;;;0.70;;
42988;SDS011;28622;43.716;20.668;2023-03-31T15:24:30;1.13;;;0.75;;
42988;SDS011;28622;43.716;20.668;2023-03-31T15:32:30;2.50;;;0.90;;
42988;SDS011;28622;43.716;20.668;2023-03-31T15:34:59;1.42;;;0.80;;
42988;SDS011;28622;43.716;20.668;2023-03-31T15:37:39;3.60;;;1.00;;
42988;SDS011;28622;43.716;20.668;2023-03-31T15:40:49;3.53;;;1.20;;
42988;SDS011;28622;43.716;20.668;2023-03-31T15:42:57;2.05;;;1.25;;
42988;SDS011;28622;43.716;20.668;2023-03-31T15:45:37;1.47;;;1.00;;
42988;SDS011;28622;43.716;20.668;2023-03-31T15:48:15;5.45;;;1.98;;
42988;SDS011;28622;43.716;20.668;2023-03-31T15:50:44;4.88;;;1.88;;
42988;SDS011;28622;43.716;20.668;2023-03-31T15:54:12;8.00;;;2.83;;
42988;SDS011;28622;43.716;20.668;2023-03-31T15:56:29;4.22;;;2.00;;
42988;SDS011;28622;43.716;20.668;2023-03-31T15:58:56;3.30;;;1.70;;
42988;SDS011;28622;43.716;20.668;2023-03-31T16:01:28;3.65;;;1.67;;
42988;SDS011;28622;43.716;20.668;2023-03-31T16:03:57;8.52;;;4.00;;
42988;SDS011;28622;43.716;20.668;2023-03-31T16:06:30;7.72;;;3.60;;
42988;SDS011;28622;43.716;20.668;2023-03-31T16:09:08;4.55;;;2.22;;
42988;SDS011;28622;43.716;20.668;2023-03-31T16:11:41;5.82;;;3.17;;
42988;SDS011;28622;43.716;20.668;2023-03-31T16:14:21;6.93;;;2.75;;
42988;SDS011;28622;43.716;20.668;2023-03-31T16:16:50;4.25;;;2.03;;
42988;SDS011;28622;43.716;20.668;2023-03-31T16:19:19;7.50;;;3.40;;
42988;SDS011;28622;43.716;20.668;2023-03-31T16:21:48;5.80;;;3.00;;
42988;SDS011;28622;43.716;20.668;2023-03-31T16:24:19;11.18;;;3.92;;
42988;SDS011;28622;43.716;20.668;2023-03-31T16:26:47;14.32;;;5.60;;
42988;SDS011;28622;43.716;20.668;2023-03-31T16:29:20;10.75;;;3.17;;
42988;SDS011;28622;43.716;20.668;2023-03-31T16:31:46;7.72;;;3.42;;
42988;SDS011;28622;43.716;20.668;2023-03-31T16:34:12;7.38;;;2.78;;
42988;SDS011;28622;43.716;20.668;2023-03-31T16:36:38;8.52;;;3.90;;
42988;SDS011;28622;43.716;20.668;2023-03-31T16:39:04;7.40;;;2.35;;
42988;SDS011;28622;43.716;20.668;2023-03-31T16:41:31;5.60;;;2.33;;
42988;SDS011;28622;43.716;20.668;2023-03-31T16:43:57;5.63;;;2.17;;
42988;SDS011;28622;43.716;20.668;2023-03-31T16:46:24;4.85;;;2.47;;
42988;SDS011;28622;43.716;20.668;2023-03-31T16:48:50;6.07;;;2.63;;
42988;SDS011;28622;43.716;20.668;2023-03-31T16:51:16;11.95;;;4.65;;
42988;SDS011;28622;43.716;20.668;2023-03-31T16:53:43;10.75;;;4.88;;
42988;SDS011;28622;43.716;20.668;2023-03-31T16:56:10;9.77;;;4.22;;
42988;SDS011;28622;43.716;20.668;2023-03-31T16:58:37;7.57;;;4.75;;
42988;SDS011;28622;43.716;20.668;2023-03-31T17:01:04;11.90;;;5.72;;
42988;SDS011;28622;43.716;20.668;2023-03-31T17:03:31;21.02;;;9.73;;
42988;SDS011;28622;43.716;20.668;2023-03-31T17:06:02;14.52;;;7.40;;
42988;SDS011;28622;43.716;20.668;2023-03-31T17:08:31;18.88;;;8.95;;
42988;SDS011;28622;43.716;20.668;2023-03-31T17:11:01;21.40;;;9.02;;
42988;SDS011;28622;43.716;20.668;2023-03-31T17:13:30;39.30;;;13.90;;
42988;SDS011;28622;43.716;20.668;2023-03-31T17:15:56;32.03;;;14.70;;
42988;SDS011;28622;43.716;20.668;2023-03-31T17:18:23;27.98;;;13.52;;
42988;SDS011;28622;43.716;20.668;2023-03-31T17:20:50;30.73;;;12.82;;
42988;SDS011;28622;43.716;20.668;2023-03-31T17:23:18;39.72;;;15.35;;
42988;SDS011;28622;43.716;20.668;2023-03-31T17:25:48;41.08;;;17.30;;
42988;SDS011;28622;43.716;20.668;2023-03-31T17:28:14;40.78;;;16.23;;
42988;SDS011;28622;43.716;20.668;2023-03-31T17:30:40;33.65;;;13.57;;
42988;SDS011;28622;43.716;20.668;2023-03-31T17:33:08;30.80;;;12.82;;
42988;SDS011;28622;43.716;20.668;2023-03-31T17:35:35;22.95;;;11.68;;
42988;SDS011;28622;43.716;20.668;2023-03-31T17:38:01;32.45;;;14.93;;
42988;SDS011;28622;43.716;20.668;2023-03-31T17:40:28;48.15;;;20.63;;
42988;SDS011;28622;43.716;20.668;2023-03-31T17:42:57;37.83;;;17.20;;
42988;SDS011;28622;43.716;20.668;2023-03-31T17:45:23;42.30;;;16.00;;
42988;SDS011;28622;43.716;20.668;2023-03-31T17:47:49;33.10;;;14.88;;
42988;SDS011;28622;43.716;20.668;2023-03-31T17:50:15;34.30;;;13.77;;
42988;SDS011;28622;43.716;20.668;2023-03-31T17:52:42;18.27;;;9.80;;
42988;SDS011;28622;43.716;20.668;2023-03-31T17:55:07;22.55;;;10.30;;
42988;SDS011;28622;43.716;20.668;2023-03-31T17:57:34;24.83;;;10.85;;
42988;SDS011;28622;43.716;20.668;2023-03-31T18:00:02;24.10;;;10.20;;